Time;durP1;ratioP1;P1;durP2;ratioP2;P2;SDS_P1;SDS_P2;PMS_P1;PMS_P2;Temp;Humidity;BMP_temperature;BMP_pressure;BME280_temperature;BME280_humidity;BME280_pressure;Samples;Min_cycle;Max_cycle;Signal;HPM_P1;HPM_P2
2022/08/23 00:01:10;;;;;;;19.55;13.68;;;;;;;;;;5090004;28;20051;-81
2022/08/23 00:03:36;;;;;;;18.15;12.95;;;;;;;;;;5087876;28;20024;-82
2022/08/23 00:06:01;;;;;;;21.13;13.68;;;;;;;;;;5089602;28;20392;-79
2022/08/23 00:08:28;;;;;;;18.30;13.18;;;;;;;;;;5085746;28;20031;-82
2022/08/23 00:10:54;;;;;;;18.20;13.90;;;;;;;;;;5089248;28;20028;-81
2022/08/23 00:13:19;;;;;;;18.25;13.15;;;;;;;;;;5084756;28;20434;-81
2022/08/23 00:15:45;;;;;;;21.33;14.40;;;;;;;;;;5086377;28;20035;-81
2022/08/23 00:18:13;;;;;;;21.25;13.90;;;;;;;;;;5090170;28;20455;-81
2022/08/23 00:20:38;;;;;;;22.40;14.85;;;;;;;;;;5087473;28;20243;-81
2022/08/23 00:23:04;;;;;;;21.13;14.80;;;;;;;;;;5088984;28;20032;-80
2022/08/23 00:25:30;;;;;;;18.33;13.35;;;;;;;;;;5089036;28;20424;-80
2022/08/23 00:27:55;;;;;;;19.80;14.05;;;;;;;;;;5088841;28;20038;-80
2022/08/23 00:30:24;;;;;;;17.92;13.43;;;;;;;;;;5089124;28;20084;-80
2022/08/23 00:32:49;;;;;;;20.17;14.45;;;;;;;;;;5083953;28;20027;-81
2022/08/23 00:35:16;;;;;;;20.98;14.30;;;;;;;;;;5087782;28;20384;-80
2022/08/23 00:37:43;;;;;;;20.83;14.18;;;;;;;;;;5088071;28;20035;-81
2022/08/23 00:40:11;;;;;;;18.15;12.60;;;;;;;;;;5088340;28;20488;-80
2022/08/23 00:48:15;;;;;;;17.05;12.50;;;;;;;;;;5088224;28;20043;-81
2022/08/23 00:51:01;;;;;;;17.58;11.57;;;;;;;;;;5090758;28;20023;-80
2022/08/23 00:53:30;;;;;;;18.90;12.02;;;;;;;;;;5090442;28;20085;-79
2022/08/23 00:55:58;;;;;;;;;;;;;;;;;;5089947;28;20024;-80
2022/08/23 00:58:24;;;;;;;18.98;12.63;;;;;;;;;;5088789;28;20378;-80
2022/08/23 01:00:52;;;;;;;19.85;13.75;;;;;;;;;;5090834;28;20085;-81
2022/08/23 01:03:19;;;;;;;19.13;13.60;;;;;;;;;;5089269;28;20055;-80
2022/08/23 01:05:53;;;;;;;18.95;13.43;;;;;;;;;;5088042;28;20028;-80
2022/08/23 01:08:23;;;;;;;19.10;12.73;;;;;;;;;;5087524;28;20078;-80
2022/08/23 01:10:55;;;;;;;20.45;13.82;;;;;;;;;;5088674;28;20055;-80
2022/08/23 01:13:28;;;;;;;20.65;13.02;;;;;;;;;;5088761;28;20052;-80
2022/08/23 01:16:24;;;;;;;16.15;12.65;;;;;;;;;;5088263;28;20490;-80
2022/08/23 01:18:51;;;;;;;16.70;12.10;;;;;;;;;;5089347;28;20047;-81
2022/08/23 01:21:31;;;;;;;19.58;12.00;;;;;;;;;;5089767;28;20391;-81
2022/08/23 01:23:58;;;;;;;;;;;;;;;;;;5090291;28;20115;-81
2022/08/23 01:26:25;;;;;;;19.45;12.15;;;;;;;;;;5088610;28;19916;-82
2022/08/23 01:28:52;;;;;;;15.88;12.10;;;;;;;;;;5087454;28;20126;-80
2022/08/23 01:31:19;;;;;;;15.02;11.93;;;;;;;;;;5087848;28;20073;-79
2022/08/23 01:33:49;;;;;;;17.23;12.55;;;;;;;;;;5089004;28;20024;-79
2022/08/23 01:36:15;;;;;;;18.45;12.52;;;;;;;;;;5090015;28;20441;-80
2022/08/23 01:38:41;;;;;;;18.55;13.30;;;;;;;;;;5090459;28;20027;-80
2022/08/23 01:41:06;;;;;;;20.02;13.88;;;;;;;;;;5089828;28;20487;-80
2022/08/23 01:43:32;;;;;;;21.35;13.88;;;;;;;;;;5088705;28;20028;-81
2022/08/23 01:46:10;;;;;;;25.05;14.98;;;;;;;;;;5088493;28;20036;-80
2022/08/23 01:48:35;;;;;;;19.77;14.30;;;;;;;;;;5084941;28;20488;-80
2022/08/23 01:51:01;;;;;;;20.75;13.70;;;;;;;;;;5089324;28;20036;-80
2022/08/23 01:53:26;;;;;;;16.92;13.13;;;;;;;;;;5088198;28;20032;-79
2022/08/23 01:55:51;;;;;;;17.95;13.07;;;;;;;;;;5089175;28;20388;-80
2022/08/23 01:58:17;;;;;;;17.92;12.45;;;;;;;;;;5090761;28;20016;-80
2022/08/23 02:00:43;;;;;;;18.85;12.10;;;;;;;;;;5090313;28;20102;-80
2022/08/23 02:03:11;;;;;;;19.80;11.32;;;;;;;;;;5089024;28;20032;-81
2022/08/23 02:05:37;;;;;;;13.60;10.38;;;;;;;;;;5088510;28;20380;-80
2022/08/23 02:10:49;;;;;;;12.80;10.35;;;;;;;;;;5089503;28;20031;-80
2022/08/23 02:13:15;;;;;;;13.88;10.05;;;;;;;;;;5089935;28;20151;-80
2022/08/23 02:15:45;;;;;;;13.73;10.07;;;;;;;;;;5088259;28;20523;-80
2022/08/23 02:18:12;;;;;;;11.95;8.63;;;;;;;;;;5089892;28;20020;-81
2022/08/23 02:20:46;;;;;;;13.88;9.15;;;;;;;;;;5088042;28;20085;-81
2022/08/23 02:23:12;;;;;;;10.05;8.40;;;;;;;;;;5086869;28;20028;-81
2022/08/23 02:25:39;;;;;;;10.10;7.70;;;;;;;;;;5090559;28;20043;-81
2022/08/23 02:28:04;;;;;;;9.75;7.43;;;;;;;;;;5089897;28;20029;-81
2022/08/23 02:30:30;;;;;;;8.48;6.88;;;;;;;;;;5087738;28;20028;-80
2022/08/23 02:32:56;;;;;;;9.82;7.13;;;;;;;;;;5090862;28;20035;-80
2022/08/23 02:35:22;;;;;;;8.95;6.75;;;;;;;;;;5088909;28;20036;-80
2022/08/23 02:37:48;;;;;;;9.93;6.50;;;;;;;;;;5087347;28;20081;-79
2022/08/23 02:40:13;;;;;;;8.60;6.65;;;;;;;;;;5090062;28;20039;-80
2022/08/23 02:42:39;;;;;;;8.23;6.13;;;;;;;;;;5088565;28;20024;-79
2022/08/23 02:45:07;;;;;;;8.25;6.38;;;;;;;;;;5088905;28;20474;-79
2022/08/23 02:47:35;;;;;;;11.00;7.20;;;;;;;;;;5094284;28;20032;-80
2022/08/23 02:50:04;;;;;;;8.13;6.38;;;;;;;;;;5090119;28;20106;-80
2022/08/23 02:52:30;;;;;;;7.00;5.75;;;;;;;;;;5091066;28;20205;-80
2022/08/23 02:54:55;;;;;;;8.00;6.78;;;;;;;;;;5090327;28;20513;-80
2022/08/23 02:57:21;;;;;;;7.95;6.80;;;;;;;;;;5092512;28;20026;-80
2022/08/23 02:59:46;;;;;;;10.68;7.00;;;;;;;;;;5091705;28;20045;-79
2022/08/23 03:02:12;;;;;;;8.35;6.47;;;;;;;;;;5094139;28;20024;-79
2022/08/23 03:04:37;;;;;;;8.98;6.60;;;;;;;;;;5090856;28;20024;-80
2022/08/23 03:07:03;;;;;;;8.65;6.05;;;;;;;;;;5091351;28;20024;-80
2022/08/23 03:09:28;;;;;;;9.02;6.68;;;;;;;;;;5092153;28;20539;-80
2022/08/23 03:11:54;;;;;;;9.40;6.43;;;;;;;;;;5089719;28;20024;-81
2022/08/23 03:14:19;;;;;;;9.35;6.05;;;;;;;;;;5090697;28;20055;-81
2022/08/23 03:16:44;;;;;;;8.85;5.60;;;;;;;;;;5091722;28;20031;-81
2022/08/23 03:19:10;;;;;;;7.40;5.78;;;;;;;;;;5087936;28;20031;-81
2022/08/23 03:21:36;;;;;;;7.82;6.75;;;;;;;;;;5086407;28;20052;-81
2022/08/23 03:24:02;;;;;;;9.45;5.72;;;;;;;;;;5088717;28;20054;-82
2022/08/23 03:26:28;;;;;;;8.05;6.28;;;;;;;;;;5091304;28;20031;-81
2022/08/23 03:28:54;;;;;;;7.28;5.40;;;;;;;;;;5087087;28;20099;-82
2022/08/23 03:31:20;;;;;;;7.40;5.85;;;;;;;;;;5087572;28;20052;-81
2022/08/23 03:33:46;;;;;;;7.20;5.40;;;;;;;;;;5087710;28;20024;-80
2022/08/23 03:36:12;;;;;;;5.93;4.75;;;;;;;;;;5090842;28;20393;-80
2022/08/23 03:38:38;;;;;;;6.05;4.25;;;;;;;;;;5089769;28;20125;-80
2022/08/23 03:41:04;;;;;;;6.18;4.35;;;;;;;;;;5087766;28;20020;-82
2022/08/23 03:43:30;;;;;;;5.97;4.40;;;;;;;;;;5087882;28;20107;-82
2022/08/23 03:45:55;;;;;;;6.35;4.13;;;;;;;;;;5088020;28;20086;-80
2022/08/23 03:48:21;;;;;;;5.43;3.92;;;;;;;;;;5089749;28;20135;-79
2022/08/23 03:50:46;;;;;;;7.10;4.45;;;;;;;;;;5092183;28;20024;-80
2022/08/23 03:53:12;;;;;;;6.47;4.78;;;;;;;;;;5090971;28;20024;-81
2022/08/23 03:55:39;;;;;;;6.53;4.75;;;;;;;;;;5092502;28;20360;-80
2022/08/23 03:58:04;;;;;;;5.70;4.55;;;;;;;;;;5092890;28;20024;-80
2022/08/23 04:00:29;;;;;;;6.60;4.75;;;;;;;;;;5088935;28;20035;-80
2022/08/23 04:02:58;;;;;;;6.43;5.20;;;;;;;;;;5090791;28;20023;-80
2022/08/23 04:05:24;;;;;;;7.03;4.65;;;;;;;;;;5088231;28;20088;-80
2022/08/23 04:07:50;;;;;;;7.20;4.95;;;;;;;;;;5087185;28;20020;-83
2022/08/23 04:10:16;;;;;;;5.00;4.28;;;;;;;;;;5086868;28;20111;-79
2022/08/23 04:12:41;;;;;;;5.70;4.03;;;;;;;;;;5088711;28;20031;-80
2022/08/23 04:15:08;;;;;;;5.13;3.72;;;;;;;;;;5087592;28;20028;-79
2022/08/23 04:17:35;;;;;;;5.22;3.65;;;;;;;;;;5085964;28;20360;-80
2022/08/23 04:20:02;;;;;;;4.07;3.25;;;;;;;;;;5088160;28;20035;-79
2022/08/23 04:22:27;;;;;;;5.20;3.08;;;;;;;;;;5087391;28;20391;-79
2022/08/23 04:24:54;;;;;;;6.25;5.28;;;;;;;;;;5087577;28;20040;-79
2022/08/23 04:27:20;;;;;;;8.13;6.07;;;;;;;;;;5086725;28;20020;-80
2022/08/23 04:29:46;;;;;;;9.52;7.05;;;;;;;;;;5088645;28;20052;-80
2022/08/23 04:32:13;;;;;;;11.10;6.90;;;;;;;;;;5087401;28;20090;-79
2022/08/23 04:34:39;;;;;;;10.27;7.60;;;;;;;;;;5088569;28;20028;-79
2022/08/23 04:37:05;;;;;;;13.73;8.23;;;;;;;;;;5086506;28;20050;-79
2022/08/23 04:42:16;;;;;;;13.50;8.63;;;;;;;;;;5086699;28;20032;-79
2022/08/23 04:42:18;;;;;;;12.05;8.43;;;;;;;;;;5087237;28;20047;-80
2022/08/23 04:44:44;;;;;;;11.30;8.57;;;;;;;;;;5084952;28;20031;-79
2022/08/23 04:47:09;;;;;;;14.70;9.35;;;;;;;;;;5080175;28;20033;-79
2022/08/23 04:49:34;;;;;;;12.20;9.73;;;;;;;;;;5083401;28;20047;-79
2022/08/23 04:52:00;;;;;;;14.18;10.25;;;;;;;;;;5084421;28;20468;-79
2022/08/23 04:54:28;;;;;;;12.02;8.73;;;;;;;;;;5087396;28;20479;-79
2022/08/23 04:56:53;;;;;;;14.77;9.80;;;;;;;;;;5086076;28;20031;-79
2022/08/23 04:59:19;;;;;;;12.68;9.82;;;;;;;;;;5086694;28;20028;-79
2022/08/23 05:01:44;;;;;;;12.88;9.88;;;;;;;;;;5084089;28;20028;-80
2022/08/23 05:04:10;;;;;;;13.52;10.00;;;;;;;;;;5079075;28;20077;-81
2022/08/23 05:06:36;;;;;;;13.20;9.18;;;;;;;;;;5090133;28;20458;-79
2022/08/23 05:09:02;;;;;;;13.23;10.05;;;;;;;;;;5085818;28;20101;-79
2022/08/23 05:11:28;;;;;;;14.90;10.10;;;;;;;;;;5083167;28;20361;-80
2022/08/23 05:13:53;;;;;;;13.77;9.82;;;;;;;;;;5084849;28;20024;-80
2022/08/23 05:16:19;;;;;;;17.52;10.18;;;;;;;;;;5089774;28;20042;-80
2022/08/23 05:18:45;;;;;;;14.57;11.00;;;;;;;;;;5089856;28;20028;-80
2022/08/23 05:21:21;;;;;;;16.23;10.43;;;;;;;;;;5087516;28;20464;-80
2022/08/23 05:23:47;;;;;;;14.73;10.57;;;;;;;;;;5087161;28;20075;-80
2022/08/23 05:26:13;;;;;;;15.38;10.27;;;;;;;;;;5088929;28;20066;-80
2022/08/23 05:28:44;;;;;;;13.57;11.13;;;;;;;;;;5089460;28;20047;-80
2022/08/23 05:31:16;;;;;;;13.75;10.02;;;;;;;;;;5085425;28;20052;-80
2022/08/23 05:33:42;;;;;;;14.40;10.05;;;;;;;;;;5088016;28;20060;-80
2022/08/23 05:36:10;;;;;;;16.33;11.32;;;;;;;;;;5087945;28;20029;-81
2022/08/23 05:38:36;;;;;;;15.98;11.13;;;;;;;;;;5088017;28;20032;-81
2022/08/23 05:41:01;;;;;;;13.30;10.40;;;;;;;;;;5087561;28;20509;-80
2022/08/23 05:43:29;;;;;;;15.32;11.25;;;;;;;;;;5089225;28;20036;-80
2022/08/23 05:46:13;;;;;;;15.07;10.98;;;;;;;;;;5085711;28;20407;-81
2022/08/23 05:48:41;;;;;;;16.80;11.88;;;;;;;;;;5088500;28;20048;-81
2022/08/23 05:51:13;;;;;;;18.88;11.93;;;;;;;;;;5087819;28;20437;-80
2022/08/23 05:53:40;;;;;;;17.55;11.60;;;;;;;;;;5084247;28;20383;-80
2022/08/23 05:56:13;;;;;;;14.48;10.63;;;;;;;;;;5083777;28;20415;-80
2022/08/23 05:58:39;;;;;;;15.57;11.45;;;;;;;;;;5086869;28;20091;-81
2022/08/23 06:01:05;;;;;;;15.38;11.50;;;;;;;;;;5090344;28;20130;-80
2022/08/23 06:03:30;;;;;;;19.30;13.00;;;;;;;;;;5086978;28;20115;-80
2022/08/23 06:05:57;;;;;;;15.63;12.23;;;;;;;;;;5085559;28;20111;-80
2022/08/23 06:08:22;;;;;;;14.10;10.82;;;;;;;;;;5087252;28;20431;-80
2022/08/23 06:10:48;;;;;;;14.70;10.75;;;;;;;;;;5087935;28;20020;-80
2022/08/23 06:13:13;;;;;;;16.98;12.02;;;;;;;;;;5086771;28;20107;-80
2022/08/23 06:15:43;;;;;;;18.25;11.15;;;;;;;;;;5087805;28;20111;-80
2022/08/23 06:18:13;;;;;;;16.23;12.05;;;;;;;;;;5084426;28;20494;-80
2022/08/23 06:20:38;;;;;;;17.02;11.95;;;;;;;;;;5088266;28;20133;-79
2022/08/23 06:23:06;;;;;;;14.40;11.60;;;;;;;;;;5091342;28;20115;-79
2022/08/23 06:25:36;;;;;;;14.70;10.88;;;;;;;;;;5087625;28;20063;-79
2022/08/23 06:28:01;;;;;;;;;;;;;;;;;;5091652;28;20028;-79
2022/08/23 06:30:27;;;;;;;15.90;12.35;;;;;;;;;;5088899;28;19916;-80
2022/08/23 06:32:52;;;;;;;15.60;11.77;;;;;;;;;;5090526;28;20050;-82
2022/08/23 06:35:18;;;;;;;16.17;12.60;;;;;;;;;;5089191;28;20538;-82
2022/08/23 06:37:43;;;;;;;20.05;14.77;;;;;;;;;;5092253;28;20024;-79
2022/08/23 06:40:09;;;;;;;18.98;13.13;;;;;;;;;;5091495;28;20024;-81
2022/08/23 06:42:35;;;;;;;18.63;12.55;;;;;;;;;;5091688;28;20027;-81
2022/08/23 06:45:01;;;;;;;20.17;12.35;;;;;;;;;;5091740;28;20031;-80
2022/08/23 06:47:26;;;;;;;15.45;11.70;;;;;;;;;;5088592;28;20032;-80
2022/08/23 06:49:53;;;;;;;16.88;11.65;;;;;;;;;;5089288;28;20044;-80
2022/08/23 06:52:18;;;;;;;17.77;12.43;;;;;;;;;;5090151;28;20145;-80
2022/08/23 06:54:45;;;;;;;16.75;11.75;;;;;;;;;;5092212;28;20111;-80
2022/08/23 06:57:12;;;;;;;12.80;10.93;;;;;;;;;;5089458;28;20024;-80
2022/08/23 06:59:37;;;;;;;15.40;11.88;;;;;;;;;;5089926;28;20020;-82
2022/08/23 07:02:06;;;;;;;14.88;11.80;;;;;;;;;;5089599;28;20025;-80
2022/08/23 07:04:34;;;;;;;16.77;12.17;;;;;;;;;;5088288;28;20451;-80
2022/08/23 07:07:01;;;;;;;17.10;12.07;;;;;;;;;;5089186;28;20024;-80
2022/08/23 07:09:27;;;;;;;16.45;12.45;;;;;;;;;;5086168;28;20016;-80
2022/08/23 07:11:53;;;;;;;17.90;12.10;;;;;;;;;;5090700;28;20379;-81
2022/08/23 07:14:21;;;;;;;15.55;12.05;;;;;;;;;;5089019;28;20039;-80
2022/08/23 07:16:50;;;;;;;15.18;12.02;;;;;;;;;;5091370;28;20414;-80
2022/08/23 07:19:18;;;;;;;15.05;11.27;;;;;;;;;;5089646;28;20724;-80
2022/08/23 07:21:44;;;;;;;14.13;10.85;;;;;;;;;;5090405;28;20605;-81
2022/08/23 07:24:10;;;;;;;13.88;10.73;;;;;;;;;;5088712;28;20111;-80
2022/08/23 07:26:38;;;;;;;15.20;11.73;;;;;;;;;;5089892;28;20109;-80
2022/08/23 07:29:05;;;;;;;13.63;11.15;;;;;;;;;;5091514;28;20028;-80
2022/08/23 07:31:32;;;;;;;14.68;11.15;;;;;;;;;;5090476;28;20042;-80
2022/08/23 07:34:01;;;;;;;12.95;10.73;;;;;;;;;;5090743;28;20032;-81
2022/08/23 07:36:28;;;;;;;16.67;11.45;;;;;;;;;;5089411;28;20049;-81
2022/08/23 07:38:54;;;;;;;15.20;10.65;;;;;;;;;;5087907;28;20124;-81
2022/08/23 07:41:22;;;;;;;12.27;10.40;;;;;;;;;;5086852;28;20020;-80
2022/08/23 07:43:48;;;;;;;15.43;10.65;;;;;;;;;;5090351;28;20028;-80
2022/08/23 07:46:14;;;;;;;12.48;9.98;;;;;;;;;;5089674;28;20132;-81
2022/08/23 07:48:40;;;;;;;15.77;11.63;;;;;;;;;;5089132;28;20075;-81
2022/08/23 07:51:09;;;;;;;12.30;10.43;;;;;;;;;;5084141;28;20517;-80
2022/08/23 07:53:34;;;;;;;12.60;10.50;;;;;;;;;;5088429;28;20082;-79
2022/08/23 07:56:04;;;;;;;13.75;10.68;;;;;;;;;;5088981;28;20032;-80
2022/08/23 07:58:30;;;;;;;11.85;9.82;;;;;;;;;;5087272;28;20443;-81
2022/08/23 08:00:55;;;;;;;14.10;11.35;;;;;;;;;;5088942;28;20063;-80
2022/08/23 08:03:21;;;;;;;15.82;11.77;;;;;;;;;;5090538;28;20028;-81
2022/08/23 08:05:46;;;;;;;12.60;10.48;;;;;;;;;;5091872;28;20031;-81
2022/08/23 08:08:12;;;;;;;12.18;10.70;;;;;;;;;;5086279;28;20028;-81
2022/08/23 08:10:40;;;;;;;14.50;10.68;;;;;;;;;;5118766;27;20032;-80
2022/08/23 08:13:07;;;;;;;16.92;10.82;;;;;;;;;;5087457;28;20032;-81
2022/08/23 08:15:33;;;;;;;19.80;11.70;;;;;;;;;;5091406;28;20074;-80
2022/08/23 08:17:58;;;;;;;14.20;11.02;;;;;;;;;;5085816;28;20040;-79
2022/08/23 08:20:25;;;;;;;13.00;11.07;;;;;;;;;;5088547;28;20106;-80
2022/08/23 08:22:51;;;;;;;12.93;10.82;;;;;;;;;;5083908;28;20761;-80
2022/08/23 08:25:16;;;;;;;13.40;11.30;;;;;;;;;;5086163;28;20056;-81
2022/08/23 08:27:42;;;;;;;12.40;11.10;;;;;;;;;;5083426;28;20091;-80
2022/08/23 08:30:09;;;;;;;12.13;10.82;;;;;;;;;;5084953;28;20425;-81
2022/08/23 08:32:36;;;;;;;13.02;10.90;;;;;;;;;;5086393;28;20506;-81
2022/08/23 08:35:02;;;;;;;15.40;11.23;;;;;;;;;;5087833;28;20467;-80
2022/08/23 08:37:28;;;;;;;16.67;12.00;;;;;;;;;;5089551;28;20024;-81
2022/08/23 08:39:54;;;;;;;16.30;12.63;;;;;;;;;;5090682;28;20027;-81
2022/08/23 08:42:46;;;;;;;15.63;11.68;;;;;;;;;;5089708;28;20467;-81
2022/08/23 08:45:19;;;;;;;15.60;11.88;;;;;;;;;;5087808;28;20024;-81
2022/08/23 08:48:10;;;;;;;15.73;12.77;;;;;;;;;;5090732;28;20020;-82
2022/08/23 08:50:40;;;;;;;14.70;11.60;;;;;;;;;;5085288;28;20049;-80
2022/08/23 08:53:17;;;;;;;17.60;12.68;;;;;;;;;;5084079;28;20082;-80
2022/08/23 08:55:54;;;;;;;11.85;10.30;;;;;;;;;;5082768;28;20026;-80
2022/08/23 08:58:32;;;;;;;13.80;11.65;;;;;;;;;;5084393;28;20032;-81
2022/08/23 09:00:58;;;;;;;14.30;11.27;;;;;;;;;;5088301;28;20028;-81
2022/08/23 09:03:31;;;;;;;13.63;11.60;;;;;;;;;;5086380;28;20024;-80
2022/08/23 09:06:03;;;;;;;13.27;10.75;;;;;;;;;;5081410;28;20024;-81
2022/08/23 09:08:44;;;;;;;13.52;10.63;;;;;;;;;;5084903;28;20494;-80
2022/08/23 09:11:35;;;;;;;16.23;12.05;;;;;;;;;;5088005;28;20040;-80
2022/08/23 09:14:15;;;;;;;19.08;12.23;;;;;;;;;;5081586;28;20040;-81
2022/08/23 09:16:51;;;;;;;14.27;11.25;;;;;;;;;;5082324;28;20024;-81
2022/08/23 09:19:19;;;;;;;14.43;10.65;;;;;;;;;;5087020;28;20032;-81
2022/08/23 09:22:16;;;;;;;16.05;11.75;;;;;;;;;;5082582;28;20058;-80
2022/08/23 09:24:42;;;;;;;16.10;11.35;;;;;;;;;;5079137;28;20119;-80
2022/08/23 09:27:09;;;;;;;16.48;11.48;;;;;;;;;;5087011;28;20436;-79
2022/08/23 09:29:37;;;;;;;12.15;10.55;;;;;;;;;;5081385;28;20048;-80
2022/08/23 09:32:24;;;;;;;11.05;9.63;;;;;;;;;;5084475;28;20115;-80
2022/08/23 09:34:49;;;;;;;12.73;9.63;;;;;;;;;;5085802;28;20032;-81
2022/08/23 09:37:18;;;;;;;10.75;9.32;;;;;;;;;;5087473;28;20727;-80
2022/08/23 09:39:48;;;;;;;11.38;10.13;;;;;;;;;;5086218;28;20034;-81
2022/08/23 09:42:28;;;;;;;13.48;10.90;;;;;;;;;;5087302;28;20043;-80
2022/08/23 09:44:55;;;;;;;12.32;9.98;;;;;;;;;;5083271;28;20468;-80
2022/08/23 09:47:29;;;;;;;11.77;8.43;;;;;;;;;;5085313;28;20028;-80
2022/08/23 09:49:55;;;;;;;12.77;9.27;;;;;;;;;;5084521;28;20052;-80
2022/08/23 09:52:25;;;;;;;10.70;8.52;;;;;;;;;;5085396;28;20032;-80
2022/08/23 09:55:03;;;;;;;9.68;8.48;;;;;;;;;;5083720;28;20024;-80
2022/08/23 09:57:30;;;;;;;11.00;8.32;;;;;;;;;;5084286;28;20024;-80
2022/08/23 10:00:16;;;;;;;10.85;7.57;;;;;;;;;;5088955;28;20465;-79
2022/08/23 10:02:42;;;;;;;10.57;7.72;;;;;;;;;;5090998;28;20028;-80
2022/08/23 10:05:14;;;;;;;10.25;8.45;;;;;;;;;;5088478;28;20039;-80
2022/08/23 10:07:42;;;;;;;10.95;9.27;;;;;;;;;;5088880;28;20055;-80
2022/08/23 10:10:26;;;;;;;9.32;7.50;;;;;;;;;;5090671;28;20035;-79
2022/08/23 10:12:54;;;;;;;8.73;6.78;;;;;;;;;;5089997;28;20039;-80
2022/08/23 10:15:24;;;;;;;7.65;6.88;;;;;;;;;;5088857;28;20076;-80
2022/08/23 10:17:54;;;;;;;8.40;7.30;;;;;;;;;;5085922;28;20028;-80
2022/08/23 10:20:31;;;;;;;9.63;6.90;;;;;;;;;;5089452;28;20028;-80
2022/08/23 10:23:12;;;;;;;9.57;7.43;;;;;;;;;;5088512;28;20476;-80
2022/08/23 10:25:58;;;;;;;13.70;8.10;;;;;;;;;;5088181;28;20036;-80
2022/08/23 10:31:57;;;;;;;9.48;7.60;;;;;;;;;;5092360;28;20042;-80
2022/08/23 10:34:31;;;;;;;10.15;8.73;;;;;;;;;;5092753;28;20028;-80
2022/08/23 10:37:49;;;;;;;9.45;8.40;;;;;;;;;;5089189;28;20052;-80
2022/08/23 10:40:31;;;;;;;11.23;8.48;;;;;;;;;;5063692;28;20048;-80
2022/08/23 10:43:14;;;;;;;13.55;8.15;;;;;;;;;;5088428;28;20153;-80
2022/08/23 10:45:42;;;;;;;10.88;8.68;;;;;;;;;;5090326;28;20120;-81
2022/08/23 10:48:27;;;;;;;9.60;7.45;;;;;;;;;;5089751;28;20032;-82
2022/08/23 10:51:37;;;;;;;8.82;7.60;;;;;;;;;;5091590;28;20538;-83
2022/08/23 10:54:33;;;;;;;9.50;7.60;;;;;;;;;;5066014;28;20115;-80
2022/08/23 10:56:59;;;;;;;11.13;8.32;;;;;;;;;;5085579;28;20036;-80
2022/08/23 10:59:26;;;;;;;12.20;9.77;;;;;;;;;;5085561;28;20040;-81
2022/08/23 11:02:22;;;;;;;14.05;9.30;;;;;;;;;;5085458;28;20054;-82
2022/08/23 11:05:01;;;;;;;14.35;9.65;;;;;;;;;;5085739;28;20090;-85
2022/08/23 11:07:30;;;;;;;12.48;9.32;;;;;;;;;;5087301;28;20027;-84
2022/08/23 11:10:10;;;;;;;14.35;9.95;;;;;;;;;;5084965;28;20097;-82
2022/08/23 11:12:56;;;;;;;16.23;11.77;;;;;;;;;;5090515;28;20082;-82
2022/08/23 11:15:31;;;;;;;15.35;10.98;;;;;;;;;;5091023;28;20020;-82
2022/08/23 11:18:04;;;;;;;13.68;11.63;;;;;;;;;;5093555;28;20118;-80
2022/08/23 11:20:47;;;;;;;12.25;10.88;;;;;;;;;;5092639;28;20032;-81
2022/08/23 11:23:32;;;;;;;14.30;10.27;;;;;;;;;;5093103;28;20072;-81
2022/08/23 11:25:58;;;;;;;13.32;11.23;;;;;;;;;;5087547;28;20037;-80
2022/08/23 11:28:26;;;;;;;13.38;10.48;;;;;;;;;;5092791;28;20028;-81
2022/08/23 11:30:55;;;;;;;16.20;11.30;;;;;;;;;;5089469;28;20030;-81
2022/08/23 11:33:23;;;;;;;13.55;10.82;;;;;;;;;;5090497;28;20024;-81
2022/08/23 11:35:53;;;;;;;13.20;11.68;;;;;;;;;;5089452;28;20059;-81
2022/08/23 11:38:46;;;;;;;10.77;9.48;;;;;;;;;;5087321;28;20058;-81
2022/08/23 11:41:18;;;;;;;14.85;9.95;;;;;;;;;;5086154;28;20024;-81
2022/08/23 11:44:04;;;;;;;15.02;10.55;;;;;;;;;;5090343;28;20028;-81
2022/08/23 11:46:49;;;;;;;10.57;8.93;;;;;;;;;;5079060;28;20172;-82
2022/08/23 11:49:27;;;;;;;9.85;8.82;;;;;;;;;;5090893;28;20516;-83
2022/08/23 11:52:20;;;;;;;9.75;8.75;;;;;;;;;;5086569;28;20024;-81
2022/08/23 11:55:30;;;;;;;9.25;8.23;;;;;;;;;;5087613;28;20024;-83
2022/08/23 11:58:22;;;;;;;9.45;7.55;;;;;;;;;;5085907;28;20043;-83
2022/08/23 12:01:06;;;;;;;9.73;8.05;;;;;;;;;;5085889;28;20082;-83
2022/08/23 12:03:50;;;;;;;9.70;8.35;;;;;;;;;;5089502;28;20028;-83
2022/08/23 12:06:19;;;;;;;10.10;8.13;;;;;;;;;;5088675;28;20024;-83
2022/08/23 12:09:00;;;;;;;9.65;8.13;;;;;;;;;;5087802;28;20056;-82
2022/08/23 12:11:51;;;;;;;8.88;7.68;;;;;;;;;;5087195;28;20720;-83
2022/08/23 12:14:41;;;;;;;9.70;7.95;;;;;;;;;;5089035;28;20374;-83
2022/08/23 12:17:15;;;;;;;9.82;8.60;;;;;;;;;;5087261;28;20070;-83
2022/08/23 12:19:45;;;;;;;8.82;7.93;;;;;;;;;;5085334;28;20052;-83
2022/08/23 12:22:12;;;;;;;;;;;;;;;;;;5087141;28;20030;-84
2022/08/23 12:24:58;;;;;;;10.77;8.30;;;;;;;;;;5085220;28;20287;-83
2022/08/23 12:27:35;;;;;;;9.32;7.93;;;;;;;;;;5090517;28;20035;-84
2022/08/23 12:30:10;;;;;;;12.60;8.73;;;;;;;;;;5086710;28;20055;-84
2022/08/23 12:33:04;;;;;;;11.77;8.88;;;;;;;;;;5085100;28;20025;-84
2022/08/23 12:35:37;;;;;;;11.05;9.07;;;;;;;;;;5084086;28;20035;-83
2022/08/23 12:38:18;;;;;;;13.85;9.45;;;;;;;;;;5087463;28;20067;-84
2022/08/23 12:40:47;;;;;;;11.15;8.68;;;;;;;;;;5088009;28;20467;-83
2022/08/23 12:43:13;;;;;;;10.05;8.60;;;;;;;;;;5087285;28;20024;-83
2022/08/23 12:45:59;;;;;;;10.95;9.60;;;;;;;;;;5084425;28;20024;-83
2022/08/23 12:48:32;;;;;;;17.42;10.40;;;;;;;;;;5088110;28;20043;-83
2022/08/23 12:50:59;;;;;;;11.68;9.50;;;;;;;;;;5086470;28;20039;-82
2022/08/23 12:53:30;;;;;;;15.25;11.13;;;;;;;;;;5086638;28;20032;-82
2022/08/23 12:56:03;;;;;;;18.58;11.90;;;;;;;;;;5087050;28;20028;-80
2022/08/23 12:58:32;;;;;;;15.75;10.73;;;;;;;;;;5088343;28;20031;-82
2022/08/23 13:01:03;;;;;;;15.43;11.98;;;;;;;;;;5088519;28;20031;-85
2022/08/23 13:03:35;;;;;;;18.55;11.65;;;;;;;;;;5090924;28;20418;-85
2022/08/23 13:06:00;;;;;;;14.77;10.75;;;;;;;;;;5088759;28;20036;-85
2022/08/23 13:08:37;;;;;;;21.58;11.57;;;;;;;;;;5090301;28;20031;-84
2022/08/23 13:11:05;;;;;;;23.88;12.40;;;;;;;;;;5091074;28;20062;-84
2022/08/23 13:13:30;;;;;;;21.30;13.07;;;;;;;;;;5090550;28;20020;-85
2022/08/23 13:16:00;;;;;;;19.50;13.23;;;;;;;;;;5086092;28;20498;-85
2022/08/23 13:18:41;;;;;;;17.52;11.63;;;;;;;;;;5089343;28;20052;-84
2022/08/23 13:21:33;;;;;;;19.40;13.13;;;;;;;;;;5091348;28;20043;-83
2022/08/23 13:24:19;;;;;;;16.75;11.13;;;;;;;;;;5089849;28;20035;-85
2022/08/23 13:26:45;;;;;;;18.05;10.90;;;;;;;;;;5089523;28;20042;-83
2022/08/23 13:29:14;;;;;;;16.25;10.90;;;;;;;;;;5089816;28;20095;-85
2022/08/23 13:32:01;;;;;;;12.98;9.63;;;;;;;;;;5081823;28;20075;-84
2022/08/23 13:34:44;;;;;;;19.70;9.65;;;;;;;;;;5090843;28;20066;-85
2022/08/23 13:37:18;;;;;;;29.63;11.13;;;;;;;;;;5091213;28;20020;-86
2022/08/23 13:39:50;;;;;;;24.10;10.77;;;;;;;;;;5091089;28;20043;-82
2022/08/23 13:42:35;;;;;;;20.23;10.10;;;;;;;;;;5093401;28;20495;-86
2022/08/23 13:45:11;;;;;;;27.25;10.75;;;;;;;;;;5090525;28;20028;-83
2022/08/23 13:47:37;;;;;;;19.67;10.52;;;;;;;;;;5088686;28;20549;-83
2022/08/23 13:50:04;;;;;;;41.05;11.18;;;;;;;;;;5086381;28;20066;-83
2022/08/23 13:52:31;;;;;;;35.88;12.02;;;;;;;;;;5089582;28;20166;-84
2022/08/23 13:54:57;;;;;;;20.08;11.48;;;;;;;;;;5085468;28;20032;-82
2022/08/23 13:57:22;;;;;;;16.60;9.35;;;;;;;;;;5090416;28;20024;-83
2022/08/23 13:59:53;;;;;;;13.23;8.90;;;;;;;;;;5087577;28;20020;-83
2022/08/23 14:02:25;;;;;;;46.67;11.75;;;;;;;;;;5086752;28;20028;-85
2022/08/23 14:05:10;;;;;;;8.73;5.18;;;;;;;;;;5089884;28;20032;-86
2022/08/23 14:11:48;;;;;;;17.95;9.13;;;;;;;;;;5087872;28;20472;-85
2022/08/23 14:14:17;;;;;;;15.82;8.07;;;;;;;;;;5093563;28;20066;-86
2022/08/23 14:17:18;;;;;;;13.32;8.13;;;;;;;;;;5093348;28;20387;-87
2022/08/23 14:19:48;;;;;;;11.13;7.55;;;;;;;;;;5087970;28;20116;-85
2022/08/23 14:22:54;;;;;;;9.98;6.95;;;;;;;;;;5088048;28;20035;-85
2022/08/23 14:25:21;;;;;;;10.20;6.22;;;;;;;;;;5080947;28;20024;-85
2022/08/23 14:28:20;;;;;;;9.50;5.50;;;;;;;;;;5074278;28;20042;-87
2022/08/23 14:31:22;;;;;;;9.43;5.28;;;;;;;;;;5087432;28;20400;-85
2022/08/23 14:33:50;;;;;;;7.82;5.57;;;;;;;;;;5088436;28;20024;-87
2022/08/23 14:47:34;;;;;;;6.57;4.82;;;;;;;;;;4981757;28;20054;-87
2022/08/23 14:50:00;;;;;;;9.00;6.05;;;;;;;;;;4955983;28;20047;-83
2022/08/23 14:52:25;;;;;;;8.20;6.05;;;;;;;;;;4979591;28;20065;-84
2022/08/23 14:54:51;;;;;;;11.65;7.30;;;;;;;;;;5041935;28;20178;-83
2022/08/23 14:57:17;;;;;;;9.93;7.20;;;;;;;;;;5089893;28;20028;-84
2022/08/23 14:59:42;;;;;;;9.75;7.38;;;;;;;;;;5090903;28;20035;-82
2022/08/23 15:02:10;;;;;;;11.73;7.63;;;;;;;;;;5089275;28;20020;-83
2022/08/23 15:04:36;;;;;;;15.88;8.18;;;;;;;;;;5085527;28;20051;-83
2022/08/23 15:07:03;;;;;;;10.05;7.55;;;;;;;;;;5088371;28;20024;-83
2022/08/23 15:09:29;;;;;;;12.77;8.00;;;;;;;;;;5085145;28;20617;-84
2022/08/23 15:11:54;;;;;;;10.95;8.25;;;;;;;;;;5088457;28;20028;-83
2022/08/23 15:14:19;;;;;;;15.05;8.80;;;;;;;;;;5088352;28;20064;-82